Time;durP1;ratioP1;P1;durP2;ratioP2;P2;SDS_P1;SDS_P2;PMS_P1;PMS_P2;Temp;Humidity;BMP_temperature;BMP_pressure;BME280_temperature;BME280_humidity;BME280_pressure;Samples;Min_cycle;Max_cycle;Signal;HPM_P1;HPM_P2
2023/09/22 00:00:19;;;;;;;1999.90;999.90;;;14.80;99.90;;;;;;5030815;28;20178;-69
2023/09/22 00:02:45;;;;;;;1999.90;999.90;;;14.70;99.90;;;;;;5025742;28;20265;-69
2023/09/22 00:05:13;;;;;;;1999.90;999.90;;;14.70;99.90;;;;;;5021710;28;20249;-69
2023/09/22 00:07:42;;;;;;;1999.90;999.90;;;14.70;99.90;;;;;;5031760;28;20259;-69
2023/09/22 00:10:09;;;;;;;1999.90;999.90;;;14.70;99.90;;;;;;5025728;28;20470;-68
2023/09/22 00:12:34;;;;;;;1999.90;999.90;;;14.70;99.90;;;;;;5023312;28;20845;-68
2023/09/22 00:15:01;;;;;;;1999.90;999.90;;;14.60;99.90;;;;;;5023369;28;20408;-69
2023/09/22 00:17:27;;;;;;;1999.90;999.90;;;14.60;99.90;;;;;;5031568;28;20217;-68
2023/09/22 00:19:54;;;;;;;1999.90;999.90;;;14.60;99.90;;;;;;5031730;28;20944;-67
2023/09/22 00:22:20;;;;;;;1999.90;999.90;;;14.60;99.90;;;;;;5028048;28;20831;-67
2023/09/22 00:24:45;;;;;;;1999.90;999.90;;;14.60;99.90;;;;;;5019672;28;20432;-67
2023/09/22 00:27:11;;;;;;;1999.90;999.90;;;14.60;99.90;;;;;;5021893;28;20410;-69
2023/09/22 00:29:37;;;;;;;1999.90;999.90;;;14.50;99.90;;;;;;5031489;28;20570;-69
2023/09/22 00:32:03;;;;;;;1999.90;999.90;;;14.60;99.90;;;;;;5028100;28;20549;-67
2023/09/22 00:34:30;;;;;;;1999.90;999.90;;;14.60;99.90;;;;;;5022988;28;20168;-69
2023/09/22 00:36:56;;;;;;;1999.90;999.90;;;14.50;99.90;;;;;;5031487;28;20402;-68
2023/09/22 00:39:22;;;;;;;1999.90;999.90;;;14.50;99.90;;;;;;5031644;28;20981;-69
2023/09/22 00:41:48;;;;;;;1999.90;999.90;;;13.70;99.90;;;;;;5020422;28;20458;-69
2023/09/22 00:44:13;;;;;;;1999.90;999.90;;;14.50;99.90;;;;;;5021492;28;20227;-67
2023/09/22 00:46:40;;;;;;;1999.90;999.90;;;14.40;99.90;;;;;;5031392;28;20618;-68
2023/09/22 00:49:07;;;;;;;1999.90;999.90;;;14.30;99.90;;;;;;5031503;28;20184;-68
2023/09/22 00:51:33;;;;;;;1999.90;999.90;;;14.40;99.90;;;;;;5031125;28;21022;-68
2023/09/22 00:54:00;;;;;;;1999.90;999.90;;;14.30;99.90;;;;;;5019811;28;20427;-68
2023/09/22 00:56:26;;;;;;;1999.90;999.90;;;14.30;99.90;;;;;;5012204;28;20795;-69
2023/09/22 00:58:52;;;;;;;1999.90;999.90;;;14.30;99.90;;;;;;5026919;28;20410;-69
2023/09/22 01:01:20;;;;;;;1999.90;999.90;;;14.20;99.90;;;;;;5031395;28;20502;-69
2023/09/22 01:03:48;;;;;;;1999.90;999.90;;;14.30;99.90;;;;;;5021584;28;20573;-68
2023/09/22 01:06:14;;;;;;;1999.90;999.90;;;14.30;99.90;;;;;;5029666;28;20798;-69
2023/09/22 01:08:40;;;;;;;1999.90;999.90;;;14.30;99.90;;;;;;5031259;28;20403;-67
2023/09/22 01:11:05;;;;;;;1999.90;999.90;;;14.30;99.90;;;;;;5029839;28;20495;-67
2023/09/22 01:13:31;;;;;;;1999.90;999.90;;;14.30;99.90;;;;;;5019416;28;20486;-68
2023/09/22 01:15:57;;;;;;;1999.90;999.90;;;14.30;99.90;;;;;;5030611;28;20655;-69
2023/09/22 01:18:23;;;;;;;1999.90;999.90;;;14.30;99.90;;;;;;5034677;28;20176;-68
2023/09/22 01:20:48;;;;;;;1999.90;999.90;;;14.20;99.90;;;;;;5034610;28;20466;-67
2023/09/22 01:23:15;;;;;;;1999.90;999.90;;;14.20;99.90;;;;;;5034471;28;20188;-67
2023/09/22 01:25:43;;;;;;;1999.90;999.90;;;14.20;99.90;;;;;;5028111;28;20311;-68
2023/09/22 01:28:10;;;;;;;1999.90;999.90;;;14.20;99.90;;;;;;5023946;28;20419;-69
2023/09/22 01:30:38;;;;;;;1999.90;999.90;;;14.20;99.90;;;;;;5025997;28;20497;-67
2023/09/22 01:33:04;;;;;;;1999.90;999.90;;;14.10;99.90;;;;;;5024222;28;20863;-67
2023/09/22 01:35:32;;;;;;;1999.90;999.90;;;14.10;99.90;;;;;;5025754;28;20512;-67
2023/09/22 01:38:09;;;;;;;1999.90;999.90;;;14.10;99.90;;;;;;5033182;28;20419;-68
2023/09/22 01:40:35;;;;;;;1999.90;999.90;;;14.10;99.90;;;;;;5016655;28;20435;-67
2023/09/22 01:43:01;;;;;;;1999.90;999.90;;;14.10;99.90;;;;;;5026911;28;20801;-67
2023/09/22 01:45:26;;;;;;;1999.90;999.90;;;14.00;99.90;;;;;;5025555;28;20493;-68
2023/09/22 01:47:52;;;;;;;1999.90;999.90;;;14.10;99.90;;;;;;5034094;28;20227;-68
2023/09/22 01:50:17;;;;;;;1999.90;999.90;;;14.10;99.90;;;;;;5034091;28;20200;-67
2023/09/22 01:52:43;;;;;;;1999.90;999.90;;;14.10;99.90;;;;;;5034102;28;20676;-69
2023/09/22 01:55:09;;;;;;;1999.90;999.90;;;14.10;99.90;;;;;;5033728;28;20172;-67
2023/09/22 01:57:35;;;;;;;1999.90;999.90;;;14.00;99.90;;;;;;5017888;28;20201;-67
2023/09/22 02:00:04;;;;;;;1999.90;999.90;;;14.00;99.90;;;;;;5025297;28;20416;-67
2023/09/22 02:02:30;;;;;;;1999.90;999.90;;;14.00;99.90;;;;;;5014269;28;20192;-69
2023/09/22 02:04:56;;;;;;;1999.90;999.90;;;13.90;99.90;;;;;;5013788;28;20416;-69
2023/09/22 02:07:22;;;;;;;1999.90;999.90;;;13.90;99.90;;;;;;5014154;28;20462;-67
2023/09/22 02:09:47;;;;;;;1999.90;999.90;;;13.90;99.90;;;;;;5013947;28;20201;-68
2023/09/22 02:12:13;;;;;;;1999.90;999.90;;;13.90;99.90;;;;;;5018866;28;20462;-67
2023/09/22 02:14:39;;;;;;;1999.90;999.90;;;13.80;99.90;;;;;;5025066;28;20245;-68
2023/09/22 02:17:04;;;;;;;1999.90;999.90;;;13.80;99.90;;;;;;5033648;28;20787;-68
2023/09/22 02:19:35;;;;;;;1999.90;999.90;;;13.80;99.90;;;;;;5033510;28;20179;-70
2023/09/22 02:22:01;;;;;;;1999.90;999.90;;;13.80;99.90;;;;;;5032775;28;20196;-69
2023/09/22 02:24:26;;;;;;;1999.90;999.90;;;13.80;99.90;;;;;;5032972;28;20414;-68
2023/09/22 02:26:52;;;;;;;1999.90;999.90;;;13.80;99.90;;;;;;5028185;28;20202;-70
2023/09/22 02:29:17;;;;;;;1999.90;999.90;;;13.80;99.90;;;;;;5025060;28;20171;-67
2023/09/22 02:31:43;;;;;;;1999.90;999.90;;;13.80;99.90;;;;;;5031900;28;20217;-68
2023/09/22 02:34:08;;;;;;;1999.90;999.90;;;13.80;99.90;;;;;;5021964;28;20581;-68
2023/09/22 02:36:34;;;;;;;1999.90;999.90;;;13.80;99.90;;;;;;5033284;28;20184;-70
2023/09/22 02:39:00;;;;;;;1999.90;999.90;;;13.70;99.90;;;;;;5033158;28;20230;-67
2023/09/22 02:41:26;;;;;;;1999.90;999.90;;;13.70;99.90;;;;;;5031244;28;20254;-68
2023/09/22 02:43:51;;;;;;;1999.90;999.90;;;13.70;99.90;;;;;;5022291;28;20616;-69
2023/09/22 02:46:17;;;;;;;1999.90;999.90;;;13.70;99.90;;;;;;5031066;28;20410;-68
2023/09/22 02:48:42;;;;;;;1999.90;999.90;;;13.70;99.90;;;;;;5033034;28;20212;-69
2023/09/22 02:51:08;;;;;;;1999.90;999.90;;;13.70;99.90;;;;;;5032915;28;20570;-67
2023/09/22 02:53:34;;;;;;;1999.90;999.90;;;13.70;99.90;;;;;;5024752;28;20225;-66
2023/09/22 02:56:06;;;;;;;1999.90;999.90;;;13.70;99.90;;;;;;5028630;28;20202;-67
2023/09/22 02:58:32;;;;;;;1999.90;999.90;;;13.80;99.90;;;;;;5017753;28;20431;-69
2023/09/22 03:00:58;;;;;;;1999.90;999.90;;;13.80;99.90;;;;;;5028662;28;20410;-69
2023/09/22 03:03:24;;;;;;;1999.90;999.90;;;13.80;99.90;;;;;;5025471;28;20936;-69
2023/09/22 03:05:50;;;;;;;1999.90;999.90;;;13.90;99.90;;;;;;5023780;28;20184;-67
2023/09/22 03:08:15;;;;;;;1999.90;999.90;;;13.90;99.90;;;;;;5022350;28;20430;-68
2023/09/22 03:10:41;;;;;;;1999.90;999.90;;;13.90;99.90;;;;;;5024189;28;20193;-67
2023/09/22 03:13:07;;;;;;;1999.90;999.90;;;14.00;99.90;;;;;;5021237;28;20210;-69
2023/09/22 03:15:34;;;;;;;1999.90;999.90;;;14.00;99.90;;;;;;5024528;28;20840;-68
2023/09/22 03:18:01;;;;;;;1999.90;999.90;;;14.10;99.90;;;;;;5032624;28;20771;-67
2023/09/22 03:20:26;;;;;;;1999.90;999.90;;;14.20;99.90;;;;;;5032527;28;20404;-66
2023/09/22 03:22:52;;;;;;;1999.90;999.90;;;14.20;99.90;;;;;;5032309;28;20771;-69
2023/09/22 03:25:17;;;;;;;1999.90;999.90;;;14.20;99.90;;;;;;5032113;28;20181;-69
2023/09/22 03:27:43;;;;;;;1999.90;999.90;;;14.20;99.90;;;;;;5026232;28;20186;-70
2023/09/22 03:30:11;;;;;;;1999.90;999.90;;;14.20;99.90;;;;;;5023808;28;20197;-67
2023/09/22 03:32:38;;;;;;;1999.90;999.90;;;14.10;99.90;;;;;;5027580;28;20200;-67
2023/09/22 03:35:07;;;;;;;1999.90;999.90;;;14.10;99.90;;;;;;5023674;28;20406;-69
2023/09/22 03:37:34;;;;;;;1999.90;999.90;;;14.10;99.90;;;;;;5032243;28;20439;-69
2023/09/22 03:40:10;;;;;;;1999.90;999.90;;;14.10;99.90;;;;;;5032147;28;20843;-68
2023/09/22 03:42:36;;;;;;;1999.90;999.90;;;14.10;99.90;;;;;;5023094;28;20446;-67
2023/09/22 03:45:01;;;;;;;1999.90;999.90;;;14.20;99.90;;;;;;5023626;28;20416;-67
2023/09/22 03:47:27;;;;;;;1999.90;999.90;;;14.20;99.90;;;;;;5032029;28;20772;-67
2023/09/22 03:49:53;;;;;;;1999.90;999.90;;;14.20;99.90;;;;;;5031930;28;20280;-68
2023/09/22 03:52:18;;;;;;;1999.90;999.90;;;14.20;99.90;;;;;;5027788;28;20432;-67
2023/09/22 03:54:44;;;;;;;1999.90;999.90;;;14.20;99.90;;;;;;5023379;28;20208;-68
2023/09/22 03:57:10;;;;;;;1999.90;999.90;;;14.10;99.90;;;;;;5028075;28;20534;-67
2023/09/22 03:59:35;;;;;;;1999.90;999.90;;;14.10;99.90;;;;;;5023753;28;20524;-67
2023/09/22 04:02:01;;;;;;;1999.90;999.90;;;14.10;99.90;;;;;;5028167;28;20675;-69
2023/09/22 04:04:29;;;;;;;1999.90;999.90;;;14.10;99.90;;;;;;5022463;28;20161;-68
2023/09/22 04:06:56;;;;;;;1999.90;999.90;;;14.10;99.90;;;;;;5031821;28;20166;-69
2023/09/22 04:09:22;;;;;;;1999.90;999.90;;;14.10;99.90;;;;;;5031691;28;20399;-69
2023/09/22 04:11:48;;;;;;;1999.90;999.90;;;14.10;99.90;;;;;;5031436;28;21043;-67
2023/09/22 04:14:13;;;;;;;1999.90;999.90;;;14.10;99.90;;;;;;5020297;28;20180;-67
2023/09/22 04:16:39;;;;;;;1999.90;999.90;;;14.20;99.90;;;;;;5031734;28;20648;-67
2023/09/22 04:19:04;;;;;;;1999.90;999.90;;;14.10;99.90;;;;;;5031670;28;20248;-69
2023/09/22 04:21:31;;;;;;;1999.90;999.90;;;14.10;99.90;;;;;;5031714;28;20187;-67
2023/09/22 04:23:59;;;;;;;1999.90;999.90;;;14.10;99.90;;;;;;5020015;28;20204;-68
2023/09/22 04:26:29;;;;;;;1999.90;999.90;;;14.10;99.90;;;;;;5030349;28;20756;-68
2023/09/22 04:28:59;;;;;;;1999.90;999.90;;;14.10;99.90;;;;;;5023208;28;20431;-68
2023/09/22 04:31:25;;;;;;;1999.90;999.90;;;14.10;99.90;;;;;;5030273;28;20493;-68
2023/09/22 04:33:52;;;;;;;1999.90;999.90;;;14.20;99.90;;;;;;5020958;28;21005;-67
2023/09/22 04:36:19;;;;;;;1999.90;999.90;;;14.20;99.90;;;;;;5028975;28;20218;-67
2023/09/22 04:38:45;;;;;;;1999.90;999.90;;;14.20;99.90;;;;;;5031499;28;20541;-67
2023/09/22 04:41:10;;;;;;;1999.90;999.90;;;14.20;99.90;;;;;;5031418;28;20713;-68
2023/09/22 04:43:36;;;;;;;1999.90;999.90;;;14.20;99.90;;;;;;5023163;28;20437;-68
2023/09/22 04:46:02;;;;;;;1999.90;999.90;;;14.20;99.90;;;;;;5023747;28;20173;-69
2023/09/22 04:48:28;;;;;;;1999.90;999.90;;;14.10;99.90;;;;;;5026982;28;20195;-68
2023/09/22 04:50:56;;;;;;;1999.90;999.90;;;14.10;99.90;;;;;;5032706;28;20481;-69
2023/09/22 04:53:24;;;;;;;1999.90;999.90;;;14.10;99.90;;;;;;5024984;28;20536;-69
2023/09/22 04:56:06;;;;;;;1999.90;999.90;;;14.10;99.90;;;;;;5034780;28;20407;-69
2023/09/22 04:58:31;;;;;;;1999.90;999.90;;;14.00;99.90;;;;;;5035157;28;20416;-68
2023/09/22 05:00:58;;;;;;;1999.90;999.90;;;13.90;99.90;;;;;;5027794;28;20776;-68
2023/09/22 05:03:28;;;;;;;1999.90;999.90;;;13.90;99.90;;;;;;5024664;28;20434;-69
2023/09/22 05:05:53;;;;;;;1999.90;999.90;;;13.90;99.90;;;;;;5028895;28;20790;-68
2023/09/22 05:08:20;;;;;;;1999.90;999.90;;;13.80;99.90;;;;;;5034894;28;20406;-68
2023/09/22 05:10:48;;;;;;;1999.90;999.90;;;13.70;99.90;;;;;;5034691;28;20206;-69
2023/09/22 05:13:18;;;;;;;1999.90;999.90;;;13.70;99.90;;;;;;5028986;28;20457;-69
2023/09/22 05:15:44;;;;;;;1999.90;999.90;;;13.70;99.90;;;;;;5023002;28;20459;-68
2023/09/22 05:18:14;;;;;;;1999.90;999.90;;;13.70;99.90;;;;;;5026440;28;20409;-68
2023/09/22 05:20:43;;;;;;;1999.90;999.90;;;13.70;99.90;;;;;;5034861;28;20434;-67
2023/09/22 05:23:09;;;;;;;1999.90;999.90;;;13.70;99.90;;;;;;5019133;28;20419;-67
2023/09/22 05:25:41;;;;;;;1999.90;999.90;;;13.60;99.90;;;;;;5033987;28;20415;-68
2023/09/22 05:28:10;;;;;;;1999.90;999.90;;;13.70;99.90;;;;;;5034637;28;20495;-69
2023/09/22 05:30:40;;;;;;;1999.90;999.90;;;13.60;99.90;;;;;;5034339;28;20449;-68
2023/09/22 05:33:07;;;;;;;1999.90;999.90;;;13.80;99.90;;;;;;5034483;28;20428;-67
2023/09/22 05:35:35;;;;;;;1999.90;999.90;;;13.80;99.90;;;;;;5034348;28;20905;-68
2023/09/22 05:38:02;;;;;;;1999.90;999.90;;;13.90;99.90;;;;;;5034420;28;20403;-69
2023/09/22 05:40:28;;;;;;;1999.90;999.90;;;13.90;99.90;;;;;;5034251;28;20952;-67
2023/09/22 05:42:54;;;;;;;1999.90;999.90;;;13.90;99.90;;;;;;5034059;28;20514;-68
2023/09/22 05:45:19;;;;;;;1999.90;999.90;;;13.90;99.90;;;;;;5033042;28;20443;-67
2023/09/22 05:47:45;;;;;;;1999.90;999.90;;;13.90;99.90;;;;;;5022532;28;20168;-67
2023/09/22 05:50:11;;;;;;;1999.90;999.90;;;13.90;99.90;;;;;;5030281;28;20216;-67
2023/09/22 05:52:39;;;;;;;1999.90;999.90;;;13.90;99.90;;;;;;5033980;28;20583;-67
2023/09/22 05:55:06;;;;;;;1999.90;999.90;;;13.80;99.90;;;;;;5033802;28;20498;-66
2023/09/22 05:57:34;;;;;;;1999.90;999.90;;;13.80;99.90;;;;;;5033860;28;20411;-67
2023/09/22 05:59:59;;;;;;;1999.90;999.90;;;13.70;99.90;;;;;;5033827;28;20748;-67
2023/09/22 06:02:25;;;;;;;1999.90;999.90;;;13.70;99.90;;;;;;5033746;28;20484;-67
2023/09/22 06:04:55;;;;;;;1999.90;999.90;;;13.70;99.90;;;;;;5033678;28;20172;-67
2023/09/22 06:07:22;;;;;;;1999.90;999.90;;;13.70;99.90;;;;;;5014060;28;20774;-69
2023/09/22 06:09:48;;;;;;;1999.90;999.90;;;13.70;99.90;;;;;;5013897;28;20842;-68
2023/09/22 06:12:13;;;;;;;1999.90;999.90;;;13.70;99.90;;;;;;5013710;28;20486;-67
2023/09/22 06:14:39;;;;;;;1999.90;999.90;;;13.70;99.90;;;;;;5013606;28;20173;-67
2023/09/22 06:17:05;;;;;;;1999.90;999.90;;;13.70;99.90;;;;;;5013994;28;20165;-68
2023/09/22 06:19:31;;;;;;;1999.90;999.90;;;13.70;99.90;;;;;;5013987;28;20187;-68
2023/09/22 06:21:57;;;;;;;1999.90;999.90;;;13.80;99.90;;;;;;5013635;28;20785;-67
2023/09/22 06:24:23;;;;;;;1999.90;999.90;;;13.80;99.90;;;;;;5013530;28;20660;-68
2023/09/22 06:26:49;;;;;;;1999.90;999.90;;;13.80;99.90;;;;;;5013536;28;20493;-67
2023/09/22 06:29:16;;;;;;;1999.90;999.90;;;13.80;99.90;;;;;;5013720;28;20482;-68
2023/09/22 06:31:41;;;;;;;1999.90;999.90;;;13.60;99.90;;;;;;5013381;28;20466;-67
2023/09/22 06:34:07;;;;;;;1999.90;999.90;;;13.90;99.90;;;;;;5013410;28;20413;-68
2023/09/22 06:36:33;;;;;;;1999.90;999.90;;;13.90;99.90;;;;;;5013512;28;20591;-68
2023/09/22 06:39:03;;;;;;;1999.90;999.90;;;13.90;99.90;;;;;;5013392;28;20231;-67
2023/09/22 06:41:29;;;;;;;1999.90;999.90;;;14.00;99.90;;;;;;5013395;28;20425;-68
2023/09/22 06:43:54;;;;;;;1999.90;999.90;;;14.00;99.90;;;;;;5013235;28;20510;-69
2023/09/22 06:46:20;;;;;;;1999.90;999.90;;;14.10;99.90;;;;;;5013173;28;20180;-67
2023/09/22 06:48:46;;;;;;;1999.90;999.90;;;14.20;99.90;;;;;;5013311;28;20165;-66
2023/09/22 06:51:18;;;;;;;1999.90;999.90;;;14.30;99.90;;;;;;5013153;28;20617;-68
2023/09/22 06:53:44;;;;;;;1999.90;999.90;;;14.40;99.90;;;;;;5013039;28;20283;-67
2023/09/22 06:56:10;;;;;;;1999.90;999.90;;;14.40;99.90;;;;;;5012903;28;20818;-69
2023/09/22 06:58:37;;;;;;;1999.90;999.90;;;14.50;99.90;;;;;;5013286;28;20412;-68
2023/09/22 07:01:10;;;;;;;1999.90;999.90;;;14.60;99.90;;;;;;5013182;28;20233;-69
2023/09/22 07:03:39;;;;;;;1999.90;999.90;;;14.60;99.90;;;;;;5012782;28;20430;-68
2023/09/22 07:06:07;;;;;;;1999.90;999.90;;;14.60;99.90;;;;;;5012787;28;20408;-68
2023/09/22 07:08:34;;;;;;;1999.90;999.90;;;14.70;99.90;;;;;;5012324;28;20404;-67
2023/09/22 07:11:01;;;;;;;1999.90;999.90;;;14.70;99.90;;;;;;5012962;28;20458;-67
2023/09/22 07:13:27;;;;;;;1999.90;999.90;;;14.70;99.90;;;;;;5012629;28;20444;-67
2023/09/22 07:15:53;;;;;;;1999.90;999.90;;;14.80;99.90;;;;;;5012665;28;20405;-68
2023/09/22 07:18:19;;;;;;;1999.90;999.90;;;14.90;99.90;;;;;;5012773;28;20510;-69
2023/09/22 07:20:46;;;;;;;1999.90;999.90;;;15.00;99.90;;;;;;5012755;28;20554;-66
2023/09/22 07:23:12;;;;;;;1999.90;999.90;;;15.10;99.90;;;;;;5012407;28;20204;-67
2023/09/22 07:25:38;;;;;;;1999.90;999.90;;;15.20;99.90;;;;;;5012616;28;20779;-67
2023/09/22 07:28:04;;;;;;;1999.90;999.90;;;15.30;99.90;;;;;;5012515;28;20409;-68
2023/09/22 07:30:29;;;;;;;1999.90;999.90;;;15.40;99.90;;;;;;5012600;28;20197;-68
2023/09/22 07:32:55;;;;;;;1999.90;999.90;;;15.40;99.90;;;;;;5007753;28;20441;-69
2023/09/22 07:35:21;;;;;;;1999.90;999.90;;;15.50;99.90;;;;;;5017936;28;20199;-69
2023/09/22 07:37:47;;;;;;;1999.90;999.90;;;15.50;99.90;;;;;;5023979;28;20407;-69
2023/09/22 07:40:13;;;;;;;1999.90;999.90;;;15.60;99.90;;;;;;5032299;28;20199;-70
2023/09/22 07:42:41;;;;;;;1999.90;999.90;;;15.70;99.90;;;;;;5032153;28;20456;-70
2023/09/22 07:45:07;;;;;;;1999.90;999.90;;;15.80;99.90;;;;;;5029545;28;20407;-69
2023/09/22 07:47:34;;;;;;;1999.90;999.90;;;15.90;99.90;;;;;;5023806;28;20486;-70
2023/09/22 07:50:00;;;;;;;1999.90;999.90;;;16.00;99.90;;;;;;5028398;28;20489;-67
2023/09/22 07:52:26;;;;;;;1999.90;999.90;;;16.10;99.90;;;;;;5020282;28;20459;-69
2023/09/22 07:54:53;;;;;;;1999.90;999.90;;;16.20;99.90;;;;;;5020882;28;20491;-67
2023/09/22 07:57:19;;;;;;;1999.90;999.90;;;16.20;99.90;;;;;;5020386;28;20207;-67
2023/09/22 07:59:44;;;;;;;1999.90;999.90;;;16.30;99.90;;;;;;5015718;28;20410;-68
2023/09/22 08:02:10;;;;;;;1999.90;999.90;;;16.30;99.90;;;;;;5031810;28;20276;-67
2023/09/22 08:04:36;;;;;;;1999.90;999.90;;;16.40;99.90;;;;;;5031702;28;20247;-69
2023/09/22 08:07:03;;;;;;;1999.90;999.90;;;16.40;99.90;;;;;;5031909;28;20161;-69
2023/09/22 08:09:28;;;;;;;1999.90;999.90;;;16.40;99.90;;;;;;5023599;28;20177;-69
2023/09/22 08:11:54;;;;;;;1999.90;999.90;;;16.40;99.90;;;;;;5010007;28;21258;-67
2023/09/22 08:14:21;;;;;;;1999.90;999.90;;;16.40;99.90;;;;;;5017882;28;20173;-67
2023/09/22 08:16:48;;;;;;;1999.90;999.90;;;16.40;99.90;;;;;;5025699;28;20181;-70
2023/09/22 08:19:14;;;;;;;1999.90;999.90;;;16.40;99.90;;;;;;5018756;28;20444;-67
2023/09/22 08:21:40;;;;;;;1999.90;999.90;;;16.40;99.90;;;;;;5020031;28;20419;-67
2023/09/22 08:24:07;;;;;;;1999.90;999.90;;;16.50;99.90;;;;;;5031001;28;20469;-67
2023/09/22 08:26:34;;;;;;;1999.90;999.90;;;16.60;99.90;;;;;;5025494;28;20965;-68
2023/09/22 08:29:00;;;;;;;1999.90;999.90;;;16.70;99.90;;;;;;5022489;28;20421;-68
2023/09/22 08:31:26;;;;;;;1999.90;999.90;;;16.70;99.90;;;;;;5031532;28;20816;-69
2023/09/22 08:33:53;;;;;;;1999.90;999.90;;;16.80;99.90;;;;;;5022192;28;20460;-67
2023/09/22 08:36:19;;;;;;;1999.90;999.90;;;16.90;99.90;;;;;;5023956;28;20906;-66
2023/09/22 08:38:46;;;;;;;1999.90;999.90;;;16.90;99.90;;;;;;5023368;28;20404;-68
2023/09/22 08:41:12;;;;;;;1999.90;999.90;;;17.00;99.90;;;;;;5025746;28;20416;-67
2023/09/22 08:43:40;;;;;;;1999.90;999.90;;;17.00;99.90;;;;;;5020825;28;20936;-67
2023/09/22 08:46:06;;;;;;;1999.90;999.90;;;17.10;99.90;;;;;;5031214;28;20418;-70
2023/09/22 08:48:31;;;;;;;1999.90;999.90;;;17.10;99.90;;;;;;5023513;28;20451;-67
2023/09/22 08:50:57;;;;;;;1999.90;999.90;;;17.10;99.90;;;;;;5023388;28;20493;-67
2023/09/22 08:53:23;;;;;;;1999.90;999.90;;;17.10;99.90;;;;;;5031018;28;20797;-67
2023/09/22 08:55:52;;;;;;;1999.90;999.90;;;17.10;99.90;;;;;;5030231;28;20451;-67
2023/09/22 08:58:18;;;;;;;1999.90;999.90;;;17.10;99.90;;;;;;5030535;28;20413;-68
2023/09/22 09:00:48;;;;;;;1999.90;999.90;;;17.00;99.90;;;;;;5022207;28;20454;-68
2023/09/22 09:03:14;;;;;;;1999.90;999.90;;;17.00;99.90;;;;;;5011370;28;20451;-68
2023/09/22 09:05:40;;;;;;;1999.90;999.90;;;17.00;99.90;;;;;;5018848;28;20530;-66
2023/09/22 09:08:10;;;;;;;1999.90;999.90;;;17.10;99.90;;;;;;5024339;28;20500;-70
2023/09/22 09:10:36;;;;;;;1999.90;999.90;;;17.10;99.90;;;;;;5026936;28;20229;-68
2023/09/22 09:13:03;;;;;;;1999.90;999.90;;;17.40;99.90;;;;;;5015621;28;20480;-67
2023/09/22 09:15:57;;;;;;;1999.90;999.90;;;17.20;99.90;;;;;;5020743;28;20796;-68
2023/09/22 09:18:24;;;;;;;1999.90;999.90;;;17.20;99.90;;;;;;5011007;28;20410;-67
2023/09/22 09:21:10;;;;;;;1999.90;999.90;;;17.30;99.90;;;;;;5010266;28;20417;-68
2023/09/22 09:23:37;;;;;;;1999.90;999.90;;;17.30;99.90;;;;;;5010750;28;20534;-68
2023/09/22 09:26:03;;;;;;;1999.90;999.90;;;17.30;99.90;;;;;;5022777;28;21176;-67
2023/09/22 09:28:29;;;;;;;1999.90;999.90;;;17.20;99.90;;;;;;5030132;28;20477;-68
2023/09/22 09:30:57;;;;;;;1999.90;999.90;;;17.20;99.90;;;;;;5030046;28;20205;-67
2023/09/22 09:33:53;;;;;;;1999.90;999.90;;;17.20;99.90;;;;;;5022152;28;20426;-67
2023/09/22 09:36:18;;;;;;;1999.90;999.90;;;17.30;99.90;;;;;;5017302;28;20416;-69
2023/09/22 09:38:44;;;;;;;1999.90;999.90;;;17.60;99.90;;;;;;5019240;28;20427;-66
2023/09/22 09:41:11;;;;;;;1999.90;999.90;;;17.80;99.90;;;;;;5017952;28;20551;-69
2023/09/22 09:43:41;;;;;;;1999.90;999.90;;;17.90;99.90;;;;;;5018260;28;20449;-71
2023/09/22 09:46:08;;;;;;;1999.90;999.90;;;17.90;99.90;;;;;;5024299;28;20445;-67
2023/09/22 09:48:37;;;;;;;1999.90;999.90;;;18.10;99.90;;;;;;5029493;28;20430;-67
2023/09/22 09:51:05;;;;;;;1999.90;999.90;;;18.20;99.90;;;;;;5029508;28;20455;-67
2023/09/22 09:53:31;;;;;;;1999.90;999.90;;;18.30;99.90;;;;;;5021988;28;20438;-70
2023/09/22 09:56:02;;;;;;;1999.90;999.90;;;18.20;99.90;;;;;;5021766;28;20409;-67
2023/09/22 09:58:32;;;;;;;1999.90;999.90;;;18.10;99.90;;;;;;5029418;28;20189;-67
2023/09/22 10:01:05;;;;;;;1999.90;999.90;;;18.00;99.90;;;;;;5029105;28;20422;-67
2023/09/22 10:03:31;;;;;;;1999.90;999.90;;;17.90;99.90;;;;;;5028664;28;20437;-68
2023/09/22 10:05:57;;;;;;;1999.90;999.90;;;17.90;99.90;;;;;;5029454;28;20419;-67
2023/09/22 10:08:25;;;;;;;1999.90;999.90;;;17.90;99.90;;;;;;5028805;28;20638;-68
2023/09/22 10:10:59;;;;;;;1999.90;999.90;;;17.90;99.90;;;;;;5028704;28;20460;-66
2023/09/22 10:13:26;;;;;;;1999.90;999.90;;;18.00;99.90;;;;;;5028946;28;20873;-69
2023/09/22 10:16:05;;;;;;;1999.90;999.90;;;18.10;99.90;;;;;;5029077;28;20457;-67
2023/09/22 10:19:05;;;;;;;1999.90;999.90;;;18.20;99.90;;;;;;5026927;28;20447;-67
2023/09/22 10:21:56;;;;;;;1999.90;999.90;;;18.10;99.90;;;;;;4979136;28;20450;-67
2023/09/22 10:24:25;;;;;;;1999.90;999.90;;;18.20;99.90;;;;;;5026639;28;20481;-71
2023/09/22 10:26:56;;;;;;;1999.90;999.90;;;18.30;99.90;;;;;;5029565;28;20480;-67
2023/09/22 10:29:37;;;;;;;1999.90;999.90;;;18.30;99.90;;;;;;5028917;28;20502;-68
2023/09/22 10:32:18;;;;;;;1999.90;999.90;;;18.30;99.90;;;;;;5029039;28;20512;-67
2023/09/22 10:35:09;;;;;;;1999.90;999.90;;;18.10;99.90;;;;;;5028872;28;20802;-70
2023/09/22 10:37:35;;;;;;;1999.90;999.90;;;18.00;99.90;;;;;;5028485;28;20423;-67
2023/09/22 10:40:13;;;;;;;1999.90;999.90;;;18.10;99.90;;;;;;5028580;28;20422;-68
2023/09/22 10:42:46;;;;;;;1999.90;999.90;;;18.20;99.90;;;;;;5028205;28;20437;-67
2023/09/22 10:45:13;;;;;;;1999.90;999.90;;;18.30;99.90;;;;;;5028123;28;20430;-70
2023/09/22 10:47:44;;;;;;;1999.90;999.90;;;18.40;99.90;;;;;;5029235;28;20415;-69
2023/09/22 10:50:17;;;;;;;1999.90;999.90;;;18.70;99.90;;;;;;5028084;28;20449;-67
2023/09/22 10:52:55;;;;;;;1999.90;999.90;;;18.70;99.90;;;;;;5028002;28;20422;-67
2023/09/22 10:55:30;;;;;;;1999.90;999.90;;;19.00;99.90;;;;;;5027776;28;20989;-67
2023/09/22 10:57:57;;;;;;;1999.90;999.90;;;19.00;98.70;;;;;;5027919;28;20603;-67
2023/09/22 11:00:23;;;;;;;1999.90;999.90;;;19.00;99.90;;;;;;5027858;28;20408;-69
2023/09/22 11:02:49;;;;;;;1999.90;999.90;;;19.20;99.90;;;;;;5028752;28;20434;-69
2023/09/22 11:05:16;;;;;;;1999.90;999.90;;;19.40;99.90;;;;;;5027674;28;20545;-67
2023/09/22 11:07:42;;;;;;;1999.90;999.90;;;19.50;99.90;;;;;;5027898;28;20741;-67
2023/09/22 11:10:08;;;;;;;1999.90;999.90;;;19.40;99.80;;;;;;5028288;28;20478;-67
2023/09/22 11:12:34;;;;;;;1999.90;999.90;;;19.30;99.90;;;;;;5027488;28;21215;-67
2023/09/22 11:15:03;;;;;;;1999.90;999.90;;;19.40;99.90;;;;;;5027279;28;20416;-67
2023/09/22 11:17:41;;;;;;;1999.90;999.90;;;19.40;99.90;;;;;;5027994;28;20917;-71
2023/09/22 11:20:14;;;;;;;1999.90;999.90;;;19.30;99.90;;;;;;5028101;28;20802;-68
2023/09/22 11:22:42;;;;;;;1999.90;999.90;;;19.10;99.90;;;;;;5028128;28;20524;-68
2023/09/22 11:25:11;;;;;;;1999.90;999.90;;;19.00;99.90;;;;;;5027568;28;20508;-67
2023/09/22 11:27:45;;;;;;;1999.90;999.90;;;19.00;99.90;;;;;;5027554;28;20430;-69
2023/09/22 11:30:14;;;;;;;1999.90;999.90;;;18.80;99.90;;;;;;5027195;28;20448;-67
2023/09/22 11:32:41;;;;;;;1999.90;999.90;;;18.70;99.90;;;;;;5027032;28;20427;-70
2023/09/22 11:35:07;;;;;;;1999.90;999.90;;;18.70;99.90;;;;;;5027571;28;20757;-70
2023/09/22 11:37:32;;;;;;;1999.90;999.90;;;18.70;99.90;;;;;;5027038;28;20416;-69
2023/09/22 11:39:58;;;;;;;1999.90;999.90;;;18.80;99.90;;;;;;5027702;28;20405;-69
2023/09/22 11:42:24;;;;;;;1999.90;999.90;;;19.20;99.90;;;;;;5027977;28;20199;-67
2023/09/22 11:44:59;;;;;;;1999.90;999.90;;;19.80;98.90;;;;;;5026822;28;20419;-66
2023/09/22 11:47:24;;;;;;;1999.90;999.90;;;20.40;97.60;;;;;;5027235;28;20230;-67
2023/09/22 11:49:50;;;;;;;1999.90;999.90;;;21.10;89.90;;;;;;5027599;28;20919;-71
2023/09/22 11:52:28;;;;;;;1999.90;999.90;;;21.00;75.70;;;;;;5027537;28;20209;-67
2023/09/22 11:54:54;;;;;;;1999.90;999.90;;;21.70;64.40;;;;;;5027382;28;20229;-67
2023/09/22 11:57:19;;;;;;;1999.90;999.90;;;22.50;56.40;;;;;;5026957;28;20388;-68
2023/09/22 11:59:47;;;;;;;1999.90;999.90;;;22.50;51.70;;;;;;5027579;28;20186;-68